createdAt,value
2023-04-26T00:00:49.128Z,4.30
2023-04-26T00:03:38.113Z,4.30
2023-04-26T00:06:27.345Z,4.20
2023-04-26T00:09:15.625Z,4.20
2023-04-26T00:12:03.707Z,4.30
2023-04-26T00:14:51.829Z,4.20
2023-04-26T00:17:41.373Z,4.20
2023-04-26T00:20:30.066Z,4.30
2023-04-26T00:23:18.423Z,4.30
2023-04-26T00:26:06.522Z,4.40
2023-04-26T00:28:54.802Z,4.40
2023-04-26T00:31:43.320Z,4.40
2023-04-26T00:34:36.399Z,4.40
2023-04-26T00:37:24.931Z,4.40
2023-04-26T00:40:13.640Z,4.30
2023-04-26T00:43:02.032Z,4.30
2023-04-26T00:45:50.769Z,4.30
2023-04-26T00:48:39.105Z,4.20
2023-04-26T00:51:28.551Z,4.10
2023-04-26T00:54:16.678Z,4.00
2023-04-26T00:57:04.853Z,4.00
2023-04-26T00:59:52.949Z,4.00
2023-04-26T01:02:41.632Z,4.00
2023-04-26T01:05:29.956Z,4.00
2023-04-26T01:08:21.046Z,4.10
2023-04-26T01:11:09.384Z,4.10
2023-04-26T01:13:57.624Z,4.10
2023-04-26T01:16:47.534Z,4.10
2023-04-26T01:19:37.534Z,4.00
2023-04-26T01:22:25.684Z,4.00
2023-04-26T01:25:16.225Z,4.00
2023-04-26T01:28:04.706Z,3.90
2023-04-26T01:30:52.857Z,3.90
2023-04-26T01:33:41.120Z,3.90
2023-04-26T01:36:29.192Z,3.90
2023-04-26T01:39:17.264Z,4.00
2023-04-26T01:42:06.871Z,4.00
2023-04-26T01:44:54.921Z,3.90
2023-04-26T01:47:43.014Z,4.00
2023-04-26T01:50:31.105Z,3.90
2023-04-26T01:53:19.189Z,3.90
2023-04-26T01:56:07.684Z,4.00
2023-04-26T01:58:57.501Z,4.00
2023-04-26T02:01:45.673Z,3.90
2023-04-26T02:04:33.830Z,4.00
2023-04-26T02:07:21.922Z,3.90
2023-04-26T02:10:10.501Z,3.90
2023-04-26T02:12:58.594Z,4.00
2023-04-26T02:15:48.840Z,4.00
2023-04-26T02:18:36.927Z,4.00
2023-04-26T02:21:25.001Z,4.00
2023-04-26T02:24:13.084Z,4.00
2023-04-26T02:27:03.892Z,4.00
2023-04-26T02:29:52.052Z,3.90
2023-04-26T02:32:41.539Z,3.90
2023-04-26T02:35:29.739Z,3.80
2023-04-26T02:38:18.441Z,3.80
2023-04-26T02:41:06.681Z,3.80
2023-04-26T02:43:54.848Z,3.70
2023-04-26T02:46:42.958Z,3.70
2023-04-26T02:49:32.988Z,3.70
2023-04-26T02:52:21.151Z,3.60
2023-04-26T02:55:09.828Z,3.60
2023-04-26T02:57:57.914Z,3.50
2023-04-26T03:00:49.183Z,3.50
2023-04-26T03:03:37.727Z,3.50
2023-04-26T03:06:28.174Z,3.50
2023-04-26T03:09:16.254Z,3.40
2023-04-26T03:12:04.509Z,3.40
2023-04-26T03:14:52.777Z,3.40
2023-04-26T03:17:40.887Z,3.30
2023-04-26T03:20:29.130Z,3.30
2023-04-26T03:23:18.555Z,3.30
2023-04-26T03:26:06.938Z,3.30
2023-04-26T03:28:55.101Z,3.30
2023-04-26T03:31:43.251Z,3.20
2023-04-26T03:34:31.314Z,3.10
2023-04-26T03:37:19.508Z,3.10
2023-04-26T03:40:09.976Z,3.10
2023-04-26T03:42:58.061Z,3.20
2023-04-26T03:45:47.872Z,3.20
2023-04-26T03:48:36.200Z,3.20
2023-04-26T03:51:24.296Z,3.20
2023-04-26T03:54:12.428Z,3.20
2023-04-26T03:57:01.876Z,3.20
2023-04-26T03:59:49.937Z,3.20
2023-04-26T04:02:38.276Z,3.10
2023-04-26T04:05:26.457Z,3.10
2023-04-26T04:08:14.563Z,3.10
2023-04-26T04:11:02.620Z,3.10
2023-04-26T04:13:52.138Z,3.20
2023-04-26T04:16:40.227Z,3.20
2023-04-26T04:19:28.294Z,3.30
2023-04-26T04:22:16.389Z,3.30
2023-04-26T04:25:06.044Z,3.30
2023-04-26T04:27:54.404Z,3.30
2023-04-26T04:30:46.334Z,3.30
2023-04-26T04:33:34.446Z,3.40
2023-04-26T04:36:22.957Z,3.40
2023-04-26T04:39:16.085Z,3.40
2023-04-26T04:42:04.472Z,3.40
2023-04-26T04:44:52.559Z,3.30
2023-04-26T04:47:42.098Z,3.40
2023-04-26T04:50:32.104Z,3.40
2023-04-26T04:53:20.527Z,3.50
2023-04-26T04:56:08.818Z,3.50
2023-04-26T04:58:56.911Z,3.60
2023-04-26T05:01:45.399Z,3.60
2023-04-26T05:04:35.192Z,3.70
2023-04-26T05:07:24.527Z,3.70
2023-04-26T05:10:13.541Z,3.70
2023-04-26T05:13:01.778Z,3.80
2023-04-26T05:15:49.908Z,3.90
2023-04-26T05:18:37.995Z,3.90
2023-04-26T05:21:27.508Z,4.00
2023-04-26T05:24:15.749Z,4.00
2023-04-26T05:27:04.629Z,4.00
2023-04-26T05:29:52.751Z,4.10
2023-04-26T05:32:41.649Z,4.20
2023-04-26T05:35:29.939Z,4.30
2023-04-26T05:38:19.389Z,4.40
2023-04-26T05:41:07.456Z,4.40
2023-04-26T05:43:55.709Z,4.50
2023-04-26T05:46:43.850Z,4.60
2023-04-26T05:49:31.925Z,4.70
2023-04-26T05:52:20.033Z,4.80
2023-04-26T05:55:10.506Z,5.00
2023-04-26T05:57:58.736Z,5.10
2023-04-26T06:00:47.096Z,5.20
2023-04-26T06:03:35.507Z,5.30
2023-04-26T06:06:23.772Z,5.50
2023-04-26T06:09:11.836Z,5.70
2023-04-26T06:12:01.835Z,5.90
2023-04-26T06:14:49.990Z,6.00
2023-04-26T06:17:38.181Z,6.20
2023-04-26T06:20:26.826Z,6.30
2023-04-26T06:23:14.935Z,6.20
2023-04-26T06:26:03.044Z,6.10
2023-04-26T06:28:52.465Z,6.10
2023-04-26T06:31:40.692Z,6.10
2023-04-26T06:34:28.852Z,6.10
2023-04-26T06:37:17.290Z,6.20
2023-04-26T06:40:06.149Z,6.20
2023-04-26T06:42:55.124Z,6.20
2023-04-26T06:45:44.550Z,6.20
2023-04-26T06:48:32.645Z,6.30
2023-04-26T06:51:20.952Z,6.30
2023-04-26T06:54:09.142Z,6.40
2023-04-26T06:56:58.418Z,6.50
2023-04-26T06:59:47.504Z,6.60
2023-04-26T07:02:37.127Z,6.70
2023-04-26T07:05:25.568Z,6.70
2023-04-26T07:08:13.925Z,6.60
2023-04-26T07:11:02.009Z,6.60
2023-04-26T07:13:50.254Z,6.50
2023-04-26T07:16:38.580Z,6.50
2023-04-26T07:19:28.098Z,6.50
2023-04-26T07:22:16.202Z,6.60
2023-04-26T07:25:05.440Z,6.70
2023-04-26T07:27:53.634Z,6.90
2023-04-26T07:30:42.514Z,7.10
2023-04-26T07:33:30.839Z,7.20
2023-04-26T07:36:21.878Z,7.30
2023-04-26T07:39:11.835Z,7.30
2023-04-26T07:41:59.911Z,7.50
2023-04-26T07:44:48.851Z,7.50
2023-04-26T07:47:37.048Z,7.50
2023-04-26T07:50:25.540Z,7.70
2023-04-26T07:53:14.983Z,7.80
2023-04-26T07:56:05.458Z,7.80
2023-04-26T07:58:53.548Z,8.00
2023-04-26T08:01:41.716Z,8.20
2023-04-26T08:04:33.894Z,8.20
2023-04-26T08:07:22.749Z,8.10
2023-04-26T08:10:12.554Z,8.00
2023-04-26T08:13:03.465Z,8.00
2023-04-26T08:15:51.593Z,8.00
2023-04-26T08:18:39.706Z,8.20
2023-04-26T08:21:27.845Z,8.40
2023-04-26T08:24:15.985Z,8.60
2023-04-26T08:27:05.958Z,8.70
2023-04-26T08:29:54.063Z,8.70
2023-04-26T08:32:42.181Z,8.70
2023-04-26T08:35:30.588Z,8.80
2023-04-26T08:38:18.677Z,8.90
2023-04-26T08:41:10.174Z,8.90
2023-04-26T08:43:59.833Z,9.10
2023-04-26T08:46:51.130Z,9.00
2023-04-26T08:49:41.348Z,9.10
2023-04-26T08:52:29.997Z,9.00
2023-04-26T08:55:18.757Z,9.10
2023-04-26T08:58:07.687Z,9.10
2023-04-26T09:00:57.160Z,9.10
2023-04-26T09:03:45.377Z,9.20
2023-04-26T09:06:34.061Z,9.20
2023-04-26T09:09:22.610Z,9.30
2023-04-26T09:12:11.004Z,9.20
2023-04-26T09:14:59.086Z,9.00
2023-04-26T09:17:49.702Z,9.10
2023-04-26T09:20:40.248Z,9.10
2023-04-26T09:23:28.310Z,9.20
2023-04-26T09:26:16.969Z,9.10
2023-04-26T09:29:14.993Z,9.20
2023-04-26T09:32:03.135Z,9.20
2023-04-26T09:34:52.885Z,9.20
2023-04-26T09:37:59.267Z,9.40
2023-04-26T09:40:49.911Z,9.70
2023-04-26T09:43:38.485Z,9.90
2023-04-26T09:46:26.803Z,10.00
2023-04-26T09:49:14.919Z,10.10
2023-04-26T09:52:05.124Z,10.00
2023-04-26T09:54:53.928Z,9.90
2023-04-26T09:57:44.056Z,9.90
2023-04-26T10:00:32.370Z,10.00
2023-04-26T10:03:21.329Z,10.10
2023-04-26T10:06:09.491Z,10.00
2023-04-26T10:08:59.344Z,9.70
2023-04-26T10:11:47.503Z,9.60
2023-04-26T10:14:35.794Z,9.30
2023-04-26T10:17:24.361Z,9.10
2023-04-26T10:20:14.461Z,9.10
2023-04-26T10:23:02.915Z,9.20
2023-04-26T10:25:52.408Z,9.50
2023-04-26T10:29:01.473Z,9.60
2023-04-26T10:32:06.853Z,9.80
2023-04-26T10:35:10.691Z,9.80
2023-04-26T10:38:09.725Z,9.60
2023-04-26T10:41:19.135Z,9.50
2023-04-26T10:44:25.822Z,9.50
2023-04-26T10:47:22.528Z,9.60
2023-04-26T10:50:11.602Z,9.80
2023-04-26T10:53:17.607Z,10.10
2023-04-26T10:56:08.007Z,10.40
2023-04-26T10:59:28.456Z,10.60
2023-04-26T11:02:17.446Z,10.50
2023-04-26T11:05:05.974Z,10.40
2023-04-26T11:08:04.223Z,10.40
2023-04-26T11:10:53.634Z,10.30
2023-04-26T11:13:43.581Z,10.20
2023-04-26T11:16:31.823Z,10.10
2023-04-26T11:19:19.928Z,10.00
2023-04-26T11:22:08.960Z,10.10
2023-04-26T11:24:57.148Z,10.20
2023-04-26T11:27:45.311Z,10.10
2023-04-26T11:30:34.853Z,10.00
2023-04-26T11:33:23.365Z,10.00
2023-04-26T11:36:11.474Z,9.90
2023-04-26T11:39:00.166Z,10.00
2023-04-26T11:41:48.246Z,10.20
2023-04-26T11:44:37.451Z,10.30
2023-04-26T11:47:30.766Z,10.30
2023-04-26T11:50:20.810Z,10.20
2023-04-26T11:53:09.858Z,10.10
2023-04-26T11:55:58.077Z,10.00
2023-04-26T11:58:46.822Z,10.10
2023-04-26T12:01:34.926Z,10.20
2023-04-26T12:04:30.681Z,10.30
2023-04-26T12:07:19.907Z,10.40
2023-04-26T12:10:17.675Z,10.60
2023-04-26T12:13:05.713Z,11.10
2023-04-26T12:15:54.292Z,11.30
2023-04-26T12:18:42.475Z,11.10
2023-04-26T12:21:41.093Z,10.90
2023-04-26T12:24:30.478Z,10.70
2023-04-26T12:27:22.244Z,10.60
2023-04-26T12:30:10.701Z,10.50
2023-04-26T12:33:09.229Z,10.50
2023-04-26T12:36:08.146Z,10.60
2023-04-26T12:38:58.314Z,10.60
2023-04-26T12:41:46.586Z,10.60
2023-04-26T12:44:34.667Z,10.70
2023-04-26T12:47:22.788Z,11.00
2023-04-26T12:50:12.757Z,11.50
2023-04-26T12:53:00.852Z,11.90
2023-04-26T12:55:50.383Z,12.30
2023-04-26T12:58:38.498Z,12.30
2023-04-26T13:01:27.129Z,12.30
2023-04-26T13:04:15.451Z,12.50
2023-04-26T13:07:03.758Z,12.60
2023-04-26T13:09:51.786Z,12.60
2023-04-26T13:12:41.466Z,12.60
2023-04-26T13:15:30.000Z,12.60
2023-04-26T13:18:18.468Z,13.00
2023-04-26T13:21:06.765Z,13.10
2023-04-26T13:23:54.869Z,13.20
2023-04-26T13:26:42.941Z,13.40
2023-04-26T13:29:32.784Z,13.70
2023-04-26T13:32:21.996Z,13.90
2023-04-26T13:35:12.019Z,14.30
2023-04-26T13:38:00.347Z,14.60
2023-04-26T13:40:48.420Z,14.50
2023-04-26T13:43:36.527Z,14.10
2023-04-26T13:46:26.074Z,13.60
2023-04-26T13:49:14.617Z,13.20
2023-04-26T13:52:02.688Z,12.80
2023-04-26T13:54:50.783Z,12.50
2023-04-26T13:57:38.834Z,12.20
2023-04-26T14:00:27.265Z,12.10
2023-04-26T14:03:16.875Z,11.90
2023-04-26T14:06:05.282Z,11.90
2023-04-26T14:08:53.326Z,12.70
2023-04-26T14:11:42.020Z,13.80
2023-04-26T14:14:30.101Z,14.60
2023-04-26T14:17:18.223Z,15.10
2023-04-26T14:20:10.345Z,15.60
2023-04-26T14:22:58.443Z,16.10
2023-04-26T14:25:46.537Z,16.60
2023-04-26T14:28:36.332Z,17.20
2023-04-26T14:31:26.107Z,17.10
2023-04-26T14:34:14.311Z,16.00
2023-04-26T14:37:04.872Z,15.40
2023-04-26T14:39:53.093Z,14.50
2023-04-26T14:42:45.614Z,13.80
2023-04-26T14:45:44.060Z,13.60
2023-04-26T14:48:32.807Z,13.30
2023-04-26T14:51:20.970Z,13.30
2023-04-26T14:54:10.381Z,13.10
2023-04-26T14:56:58.461Z,12.80
2023-04-26T14:59:46.629Z,12.40
2023-04-26T15:02:35.060Z,12.00
2023-04-26T15:05:24.332Z,11.60
2023-04-26T15:08:12.475Z,11.40
2023-04-26T15:11:01.919Z,11.30
2023-04-26T15:13:50.018Z,11.30
2023-04-26T15:16:38.147Z,11.20
2023-04-26T15:19:26.582Z,11.10
2023-04-26T15:22:14.664Z,11.10
2023-04-26T15:25:02.917Z,11.10
2023-04-26T15:27:52.373Z,11.10
2023-04-26T15:30:40.800Z,10.90
2023-04-26T15:33:30.370Z,10.90
2023-04-26T15:36:20.281Z,10.90
2023-04-26T15:39:08.474Z,10.90
2023-04-26T15:41:57.812Z,11.00
2023-04-26T15:44:47.266Z,11.70
2023-04-26T15:47:35.428Z,13.70
2023-04-26T15:50:23.565Z,15.30
2023-04-26T15:53:11.938Z,16.00
2023-04-26T15:56:00.046Z,16.20
2023-04-26T15:58:48.470Z,16.30
2023-04-26T16:01:38.106Z,16.70
2023-04-26T16:04:26.383Z,16.60
2023-04-26T16:07:14.629Z,16.60
2023-04-26T16:10:02.862Z,16.20
2023-04-26T16:12:51.037Z,15.40
2023-04-26T16:15:39.233Z,14.60
2023-04-26T16:18:28.709Z,14.10
2023-04-26T16:21:16.823Z,13.60
2023-04-26T16:24:05.206Z,13.10
2023-04-26T16:26:53.313Z,12.60
2023-04-26T16:29:41.408Z,12.20
2023-04-26T16:32:30.691Z,11.90
2023-04-26T16:35:20.444Z,11.70
2023-04-26T16:38:08.530Z,11.50
2023-04-26T16:40:58.062Z,11.40
2023-04-26T16:43:46.384Z,11.20
2023-04-26T16:46:34.638Z,11.10
2023-04-26T16:49:22.860Z,11.10
2023-04-26T16:52:12.380Z,11.00
2023-04-26T16:55:02.034Z,11.00
2023-04-26T16:57:50.131Z,11.00
2023-04-26T17:00:38.210Z,10.90
2023-04-26T17:03:26.671Z,10.90
2023-04-26T17:06:15.013Z,10.90
2023-04-26T17:09:05.487Z,10.80
2023-04-26T17:11:53.579Z,10.80
2023-04-26T17:14:42.237Z,10.70
2023-04-26T17:17:30.413Z,10.70
2023-04-26T17:20:18.710Z,10.60
2023-04-26T17:23:08.596Z,10.70
2023-04-26T17:25:58.227Z,10.70
2023-04-26T17:28:46.504Z,10.60
2023-04-26T17:31:34.629Z,10.50
2023-04-26T17:34:22.857Z,10.40
2023-04-26T17:37:10.943Z,10.40
2023-04-26T17:39:59.058Z,10.30
2023-04-26T17:42:48.562Z,10.30
2023-04-26T17:45:36.716Z,10.40
2023-04-26T17:48:25.043Z,10.50
2023-04-26T17:51:13.217Z,10.50
2023-04-26T17:54:01.425Z,10.40
2023-04-26T17:56:50.279Z,10.40
2023-04-26T17:59:39.746Z,10.20
2023-04-26T18:02:27.979Z,10.20
2023-04-26T18:05:16.445Z,10.10
2023-04-26T18:08:05.201Z,10.00
2023-04-26T18:10:53.949Z,9.90
2023-04-26T18:13:42.026Z,9.80
2023-04-26T18:16:31.473Z,9.70
2023-04-26T18:19:19.692Z,9.60
2023-04-26T18:22:07.896Z,9.40
2023-04-26T18:24:55.982Z,9.30
2023-04-26T18:27:44.093Z,9.20
2023-04-26T18:30:32.161Z,9.20
2023-04-26T18:33:22.095Z,9.10
2023-04-26T18:36:10.345Z,9.00
2023-04-26T18:39:00.761Z,8.90
2023-04-26T18:41:50.791Z,8.90
2023-04-26T18:44:38.885Z,8.80
2023-04-26T18:47:26.999Z,8.80
2023-04-26T18:50:16.553Z,8.90
2023-04-26T18:53:04.659Z,8.80
2023-04-26T18:55:53.133Z,8.90
2023-04-26T18:58:41.232Z,8.90
2023-04-26T19:01:29.445Z,8.90
2023-04-26T19:04:17.729Z,8.80
2023-04-26T19:07:08.068Z,8.70
2023-04-26T19:09:59.644Z,8.70
2023-04-26T19:12:48.549Z,8.60
2023-04-26T19:15:36.686Z,8.60
2023-04-26T19:18:24.789Z,8.70
2023-04-26T19:21:12.864Z,8.70
2023-04-26T19:24:02.506Z,8.70
2023-04-26T19:26:50.608Z,8.60
2023-04-26T19:29:38.730Z,8.60
2023-04-26T19:32:26.851Z,8.60
2023-04-26T19:35:15.061Z,8.60
2023-04-26T19:38:05.296Z,8.60
2023-04-26T19:40:54.754Z,8.60
2023-04-26T19:43:42.918Z,8.60
2023-04-26T19:46:31.053Z,8.60
2023-04-26T19:49:19.200Z,8.50
2023-04-26T19:52:07.277Z,8.50
2023-04-26T19:54:55.550Z,8.50
2023-04-26T19:57:45.019Z,8.50
2023-04-26T20:00:35.681Z,8.40
2023-04-26T20:03:24.087Z,8.40
2023-04-26T20:06:14.058Z,8.40
2023-04-26T20:09:02.459Z,8.50
2023-04-26T20:11:51.913Z,8.50
2023-04-26T20:14:41.661Z,8.60
2023-04-26T20:17:29.808Z,8.50
2023-04-26T20:20:17.902Z,8.50
2023-04-26T20:23:07.518Z,8.60
2023-04-26T20:25:55.626Z,8.60
2023-04-26T20:28:43.732Z,8.60
2023-04-26T20:31:33.649Z,8.60
2023-04-26T20:34:21.811Z,8.50
2023-04-26T20:37:09.888Z,8.50
2023-04-26T20:39:58.489Z,8.50
2023-04-26T20:42:46.760Z,8.50
2023-04-26T20:45:34.879Z,8.50
2023-04-26T20:48:24.318Z,8.50
2023-04-26T20:51:12.420Z,8.50
2023-04-26T20:54:00.515Z,8.50
2023-04-26T20:56:48.586Z,8.50
2023-04-26T20:59:36.687Z,8.40
2023-04-26T21:02:24.982Z,8.40
2023-04-26T21:05:14.541Z,8.40
2023-04-26T21:08:03.058Z,8.40
2023-04-26T21:10:51.497Z,8.40
2023-04-26T21:13:39.539Z,8.40
2023-04-26T21:16:27.715Z,8.30
2023-04-26T21:19:15.857Z,8.30
2023-04-26T21:22:05.340Z,8.30
2023-04-26T21:24:53.430Z,8.30
2023-04-26T21:27:41.608Z,8.30
2023-04-26T21:30:29.791Z,8.20
2023-04-26T21:33:18.047Z,8.20
2023-04-26T21:36:06.581Z,8.20
2023-04-26T21:38:56.030Z,8.20
2023-04-26T21:41:44.072Z,8.10
2023-04-26T21:44:32.126Z,8.10
2023-04-26T21:47:20.318Z,8.10
2023-04-26T21:50:08.670Z,8.10
2023-04-26T21:52:56.728Z,8.10
2023-04-26T21:55:50.666Z,8.10
2023-04-26T21:58:38.757Z,8.10
2023-04-26T22:01:26.976Z,8.10
2023-04-26T22:04:15.369Z,8.00
2023-04-26T22:07:03.845Z,8.00
2023-04-26T22:09:51.937Z,8.00
2023-04-26T22:12:41.436Z,8.00
2023-04-26T22:15:29.765Z,8.00
2023-04-26T22:18:17.852Z,8.00
2023-04-26T22:21:06.270Z,8.00
2023-04-26T22:23:54.515Z,8.00
2023-04-26T22:26:42.581Z,8.00
2023-04-26T22:29:32.002Z,7.90
2023-04-26T22:32:20.609Z,7.90
2023-04-26T22:35:09.048Z,7.90
2023-04-26T22:37:57.174Z,7.90
2023-04-26T22:40:45.988Z,8.00
2023-04-26T22:43:34.262Z,8.00
2023-04-26T22:46:23.729Z,8.00
2023-04-26T22:49:12.180Z,8.00
2023-04-26T22:52:07.990Z,8.10
2023-04-26T22:55:00.916Z,8.10
2023-04-26T22:57:49.012Z,8.10
2023-04-26T23:00:37.209Z,8.10
2023-04-26T23:03:26.757Z,8.20
2023-04-26T23:06:14.933Z,8.20
2023-04-26T23:09:03.048Z,8.20
2023-04-26T23:11:51.138Z,8.20
2023-04-26T23:14:39.221Z,8.20
2023-04-26T23:17:27.569Z,8.20
2023-04-26T23:20:17.687Z,8.20
2023-04-26T23:23:05.989Z,8.20
2023-04-26T23:25:54.043Z,8.20
2023-04-26T23:28:42.133Z,8.20
2023-04-26T23:31:30.387Z,8.20
2023-04-26T23:34:18.472Z,8.20
2023-04-26T23:37:08.376Z,8.20
2023-04-26T23:39:56.745Z,8.20
2023-04-26T23:42:44.803Z,8.10
2023-04-26T23:45:32.990Z,8.10
2023-04-26T23:48:21.097Z,8.10
2023-04-26T23:51:09.242Z,8.10
2023-04-26T23:53:58.691Z,8.10
2023-04-26T23:56:46.991Z,8.00
2023-04-26T23:59:35.079Z,8.00
